createdAt,value
2023-04-22T00:00:32.320Z,32.15
2023-04-22T00:01:32.329Z,32.15
2023-04-22T00:02:32.402Z,32.13
2023-04-22T00:03:32.453Z,32.13
2023-04-22T00:04:32.503Z,32.15
2023-04-22T00:05:34.160Z,32.16
2023-04-22T00:06:32.386Z,32.18
2023-04-22T00:07:32.429Z,32.19
2023-04-22T00:08:32.464Z,32.19
2023-04-22T00:09:32.501Z,32.20
2023-04-22T00:10:32.518Z,32.22
2023-04-22T00:11:32.535Z,32.21
2023-04-22T00:12:32.532Z,32.22
2023-04-22T00:13:32.538Z,32.23
2023-04-22T00:14:32.534Z,32.22
2023-04-22T00:15:32.554Z,32.23
2023-04-22T00:16:32.593Z,32.23
2023-04-22T00:17:32.678Z,32.25
2023-04-22T00:18:32.622Z,32.26
2023-04-22T00:19:32.652Z,32.25
2023-04-22T00:20:32.706Z,32.26
2023-04-22T00:21:32.678Z,32.27
2023-04-22T00:22:32.689Z,32.26
2023-04-22T00:23:32.698Z,32.28
2023-04-22T00:24:32.723Z,32.28
2023-04-22T00:25:32.740Z,32.30
2023-04-22T00:26:32.745Z,32.30
2023-04-22T00:27:32.786Z,32.29
2023-04-22T00:28:32.807Z,32.30
2023-04-22T00:29:32.842Z,32.31
2023-04-22T00:30:32.888Z,32.33
2023-04-22T00:31:32.973Z,32.34
2023-04-22T00:32:33.065Z,32.35
2023-04-22T00:33:32.993Z,32.33
2023-04-22T00:34:32.987Z,32.35
2023-04-22T00:35:33.028Z,32.37
2023-04-22T00:36:33.072Z,32.34
2023-04-22T00:37:33.053Z,32.37
2023-04-22T00:38:33.087Z,32.35
2023-04-22T00:39:33.121Z,32.38
2023-04-22T00:40:33.149Z,32.38
2023-04-22T00:41:33.191Z,32.40
2023-04-22T00:42:33.329Z,32.39
2023-04-22T00:43:33.281Z,32.39
2023-04-22T00:44:33.289Z,32.41
2023-04-22T00:45:33.331Z,32.39
2023-04-22T00:46:33.421Z,32.40
2023-04-22T00:47:33.408Z,32.43
2023-04-22T00:48:33.429Z,32.42
2023-04-22T00:49:33.437Z,32.42
2023-04-22T00:50:33.505Z,32.43
2023-04-22T00:51:33.587Z,32.44
2023-04-22T00:52:33.489Z,32.46
2023-04-22T00:53:33.523Z,32.49
2023-04-22T00:54:33.570Z,32.44
2023-04-22T00:55:33.603Z,32.46
2023-04-22T00:56:33.618Z,32.46
2023-04-22T00:57:33.623Z,32.46
2023-04-22T00:58:33.631Z,32.45
2023-04-22T00:59:33.653Z,32.47
2023-04-22T01:00:33.728Z,32.50
2023-04-22T01:01:33.739Z,32.50
2023-04-22T01:02:33.910Z,32.50
2023-04-22T01:03:33.844Z,32.48
2023-04-22T01:04:33.762Z,32.52
2023-04-22T01:05:33.704Z,32.52
2023-04-22T01:06:33.689Z,32.52
2023-04-22T01:07:33.679Z,32.53
2023-04-22T01:08:33.667Z,32.53
2023-04-22T01:09:33.659Z,32.54
2023-04-22T01:10:33.671Z,32.54
2023-04-22T01:11:33.661Z,32.55
2023-04-22T01:12:33.649Z,32.57
2023-04-22T01:13:33.654Z,32.57
2023-04-22T01:14:33.653Z,32.55
2023-04-22T01:15:33.655Z,32.56
2023-04-22T01:16:33.677Z,32.59
2023-04-22T01:17:33.782Z,32.59
2023-04-22T01:18:33.637Z,32.60
2023-04-22T01:19:33.628Z,32.58
2023-04-22T01:20:33.635Z,32.60
2023-04-22T01:21:33.679Z,32.60
2023-04-22T01:22:33.633Z,32.63
2023-04-22T01:23:33.622Z,32.61
2023-04-22T01:24:33.606Z,32.62
2023-04-22T01:25:33.619Z,32.62
2023-04-22T01:26:33.602Z,32.64
2023-04-22T01:27:33.615Z,32.63
2023-04-22T01:28:33.620Z,32.64
2023-04-22T01:29:33.660Z,32.64
2023-04-22T01:30:33.664Z,32.67
2023-04-22T01:31:35.618Z,32.66
2023-04-22T01:32:33.699Z,32.71
2023-04-22T01:33:33.652Z,32.70
2023-04-22T01:34:33.654Z,32.67
2023-04-22T01:35:33.646Z,32.70
2023-04-22T01:36:33.641Z,32.71
2023-04-22T01:37:33.627Z,32.70
2023-04-22T01:38:33.631Z,32.69
2023-04-22T01:39:33.612Z,32.70
2023-04-22T01:40:33.620Z,32.70
2023-04-22T01:41:33.688Z,32.70
2023-04-22T01:42:33.590Z,32.71
2023-04-22T01:43:33.592Z,32.72
2023-04-22T01:44:33.581Z,32.74
2023-04-22T01:45:33.697Z,32.75
2023-04-22T01:46:33.679Z,32.74
2023-04-22T01:47:33.664Z,32.75
2023-04-22T01:48:33.637Z,32.74
2023-04-22T01:49:33.626Z,32.79
2023-04-22T01:50:33.611Z,32.76
2023-04-22T01:51:34.230Z,32.77
2023-04-22T01:52:33.640Z,32.77
2023-04-22T01:53:33.618Z,32.77
2023-04-22T01:54:33.626Z,32.77
2023-04-22T01:55:33.627Z,32.77
2023-04-22T01:56:33.662Z,32.79
2023-04-22T01:57:33.668Z,32.81
2023-04-22T01:58:33.661Z,32.78
2023-04-22T01:59:33.658Z,32.82
2023-04-22T02:00:33.670Z,32.80
2023-04-22T02:01:34.664Z,32.80
2023-04-22T02:02:33.755Z,32.83
2023-04-22T02:03:33.860Z,32.83
2023-04-22T02:04:33.799Z,32.82
2023-04-22T02:05:33.747Z,32.87
2023-04-22T02:06:33.758Z,32.85
2023-04-22T02:07:33.756Z,32.85
2023-04-22T02:08:33.752Z,32.84
2023-04-22T02:09:33.761Z,32.83
2023-04-22T02:10:33.758Z,32.84
2023-04-22T02:11:33.787Z,32.86
2023-04-22T02:12:33.777Z,32.87
2023-04-22T02:13:33.807Z,32.86
2023-04-22T02:14:33.840Z,32.88
2023-04-22T02:15:33.929Z,32.90
2023-04-22T02:16:33.961Z,32.88
2023-04-22T02:17:33.878Z,32.91
2023-04-22T02:18:33.894Z,32.89
2023-04-22T02:19:33.965Z,32.86
2023-04-22T02:20:33.927Z,32.90
2023-04-22T02:21:33.938Z,32.91
2023-04-22T02:22:33.964Z,32.90
2023-04-22T02:23:34.061Z,32.92
2023-04-22T02:24:33.985Z,32.93
2023-04-22T02:25:34.020Z,32.93
2023-04-22T02:26:34.003Z,32.93
2023-04-22T02:27:34.003Z,32.91
2023-04-22T02:28:34.027Z,32.94
2023-04-22T02:29:34.020Z,32.93
2023-04-22T02:30:34.071Z,32.93
2023-04-22T02:31:34.138Z,32.94
2023-04-22T02:32:34.085Z,32.95
2023-04-22T02:33:34.094Z,32.96
2023-04-22T02:34:34.093Z,32.95
2023-04-22T02:35:34.124Z,32.94
2023-04-22T02:36:34.132Z,32.95
2023-04-22T02:37:34.133Z,32.99
2023-04-22T02:38:34.204Z,32.97
2023-04-22T02:39:34.261Z,32.99
2023-04-22T02:40:34.275Z,32.98
2023-04-22T02:41:34.286Z,32.98
2023-04-22T02:42:34.314Z,32.97
2023-04-22T02:43:34.308Z,32.99
2023-04-22T02:44:34.356Z,32.99
2023-04-22T02:45:34.404Z,33.01
2023-04-22T02:46:34.433Z,32.98
2023-04-22T02:47:34.432Z,33.02
2023-04-22T02:48:34.392Z,33.01
2023-04-22T02:49:34.386Z,33.01
2023-04-22T02:50:34.400Z,33.00
2023-04-22T02:51:34.415Z,33.02
2023-04-22T02:52:34.433Z,33.02
2023-04-22T02:53:34.398Z,33.02
2023-04-22T02:54:34.390Z,33.03
2023-04-22T02:55:34.392Z,33.02
2023-04-22T02:56:35.120Z,33.04
2023-04-22T02:57:34.413Z,33.02
2023-04-22T02:58:34.400Z,33.04
2023-04-22T02:59:34.395Z,33.07
2023-04-22T03:00:34.384Z,33.04
2023-04-22T03:01:34.509Z,33.03
2023-04-22T03:02:34.541Z,33.05
2023-04-22T03:03:34.484Z,33.04
2023-04-22T03:04:34.472Z,33.04
2023-04-22T03:05:34.415Z,33.06
2023-04-22T03:06:34.397Z,33.08
2023-04-22T03:07:34.377Z,33.03
2023-04-22T03:08:34.402Z,33.07
2023-04-22T03:09:34.409Z,33.07
2023-04-22T03:10:34.418Z,33.07
2023-04-22T03:11:34.437Z,33.08
2023-04-22T03:12:34.453Z,33.09
2023-04-22T03:13:34.461Z,33.07
2023-04-22T03:14:34.486Z,33.08
2023-04-22T03:15:34.520Z,33.10
2023-04-22T03:16:34.689Z,33.09
2023-04-22T03:17:34.604Z,33.12
2023-04-22T03:18:34.586Z,33.11
2023-04-22T03:19:34.635Z,33.11
2023-04-22T03:20:34.653Z,33.13
2023-04-22T03:21:34.667Z,33.10
2023-04-22T03:22:34.670Z,33.13
2023-04-22T03:23:34.693Z,33.09
2023-04-22T03:24:34.710Z,33.13
2023-04-22T03:25:35.121Z,33.12
2023-04-22T03:26:34.735Z,33.12
2023-04-22T03:27:34.776Z,33.15
2023-04-22T03:28:34.785Z,33.12
2023-04-22T03:29:34.822Z,33.15
2023-04-22T03:30:34.832Z,33.15
2023-04-22T03:31:34.871Z,33.17
2023-04-22T03:32:34.878Z,33.15
2023-04-22T03:33:34.863Z,33.14
2023-04-22T03:34:37.138Z,33.16
2023-04-22T03:35:34.963Z,33.14
2023-04-22T03:36:34.980Z,33.16
2023-04-22T03:37:34.965Z,33.18
2023-04-22T03:38:34.969Z,33.18
2023-04-22T03:39:35.672Z,33.20
2023-04-22T03:40:34.998Z,33.19
2023-04-22T03:41:34.997Z,33.18
2023-04-22T03:42:34.993Z,33.20
2023-04-22T03:43:34.989Z,33.21
2023-04-22T03:44:34.982Z,33.20
2023-04-22T03:45:34.991Z,33.21
2023-04-22T03:46:35.041Z,33.20
2023-04-22T03:47:34.934Z,33.21
2023-04-22T03:48:34.935Z,33.21
2023-04-22T03:49:34.930Z,33.21
2023-04-22T03:50:34.909Z,33.21
2023-04-22T03:51:34.911Z,33.22
2023-04-22T03:52:34.903Z,33.25
2023-04-22T03:53:34.899Z,33.25
2023-04-22T03:54:34.909Z,33.24
2023-04-22T03:55:34.964Z,33.24
2023-04-22T03:56:34.895Z,33.25
2023-04-22T03:57:34.905Z,33.24
2023-04-22T03:58:34.897Z,33.23
2023-04-22T03:59:34.879Z,33.27
2023-04-22T04:00:34.904Z,33.29
2023-04-22T04:01:34.901Z,33.30
2023-04-22T04:02:35.048Z,33.27
2023-04-22T04:03:35.083Z,33.29
2023-04-22T04:04:35.137Z,33.30
2023-04-22T04:05:34.910Z,33.30
2023-04-22T04:06:34.893Z,33.31
2023-04-22T04:07:34.894Z,33.31
2023-04-22T04:08:34.953Z,33.30
2023-04-22T04:09:34.914Z,33.30
2023-04-22T04:10:34.943Z,33.31
2023-04-22T04:11:34.961Z,33.30
2023-04-22T04:12:35.014Z,33.33
2023-04-22T04:13:35.007Z,33.34
2023-04-22T04:14:35.012Z,33.36
2023-04-22T04:15:35.061Z,33.37
2023-04-22T04:16:35.142Z,33.30
2023-04-22T04:17:35.091Z,33.34
2023-04-22T04:18:35.064Z,33.34
2023-04-22T04:19:35.069Z,33.33
2023-04-22T04:20:35.104Z,33.34
2023-04-22T04:21:35.082Z,33.37
2023-04-22T04:22:35.092Z,33.34
2023-04-22T04:23:35.059Z,33.33
2023-04-22T04:24:35.075Z,33.37
2023-04-22T04:25:35.088Z,33.34
2023-04-22T04:26:35.085Z,33.32
2023-04-22T04:27:35.087Z,33.33
2023-04-22T04:28:35.110Z,33.37
2023-04-22T04:29:35.122Z,33.35
2023-04-22T04:30:35.123Z,33.37
2023-04-22T04:31:35.147Z,33.37
2023-04-22T04:32:35.120Z,33.38
2023-04-22T04:33:35.105Z,33.40
2023-04-22T04:34:35.102Z,33.40
2023-04-22T04:35:35.154Z,33.36
2023-04-22T04:36:35.120Z,33.35
2023-04-22T04:37:35.125Z,33.36
2023-04-22T04:38:35.116Z,33.38
2023-04-22T04:39:35.168Z,33.38
2023-04-22T04:40:35.111Z,33.41
2023-04-22T04:41:35.105Z,33.37
2023-04-22T04:42:35.112Z,33.35
2023-04-22T04:43:35.099Z,33.38
2023-04-22T04:44:35.090Z,33.36
2023-04-22T04:45:35.097Z,33.39
2023-04-22T04:46:35.103Z,33.38
2023-04-22T04:47:35.097Z,33.37
2023-04-22T04:48:35.106Z,33.36
2023-04-22T04:49:35.103Z,33.38
2023-04-22T04:50:35.108Z,33.38
2023-04-22T04:51:35.101Z,33.37
2023-04-22T04:52:35.109Z,33.38
2023-04-22T04:53:35.114Z,33.34
2023-04-22T04:54:35.100Z,33.37
2023-04-22T04:55:35.134Z,33.37
2023-04-22T04:56:35.137Z,33.37
2023-04-22T04:57:36.575Z,33.36
2023-04-22T04:58:35.132Z,33.39
2023-04-22T04:59:35.117Z,33.37
2023-04-22T05:00:35.108Z,33.37
2023-04-22T05:01:35.155Z,33.36
2023-04-22T05:02:35.157Z,33.37
2023-04-22T05:03:35.333Z,33.38
2023-04-22T05:04:35.223Z,33.38
2023-04-22T05:05:35.066Z,33.36
2023-04-22T05:06:35.041Z,33.37
2023-04-22T05:07:35.026Z,33.38
2023-04-22T05:08:36.763Z,33.40
2023-04-22T05:09:35.015Z,33.40
2023-04-22T05:10:35.012Z,33.40
2023-04-22T05:11:34.986Z,33.38
2023-04-22T05:12:34.985Z,33.37
2023-04-22T05:13:34.967Z,33.35
2023-04-22T05:14:34.957Z,33.35
2023-04-22T05:15:34.953Z,33.36
2023-04-22T05:16:34.973Z,33.36
2023-04-22T05:17:34.937Z,33.35
2023-04-22T05:18:34.906Z,33.38
2023-04-22T05:19:34.888Z,33.38
2023-04-22T05:20:36.137Z,33.39
2023-04-22T05:21:34.864Z,33.39
2023-04-22T05:22:34.852Z,33.40
2023-04-22T05:23:34.826Z,33.41
2023-04-22T05:24:34.816Z,33.39
2023-04-22T05:25:35.253Z,33.38
2023-04-22T05:26:34.779Z,33.39
2023-04-22T05:27:34.765Z,33.37
2023-04-22T05:28:34.753Z,33.38
2023-04-22T05:29:34.744Z,33.40
2023-04-22T05:30:34.740Z,33.40
2023-04-22T05:31:34.789Z,33.39
2023-04-22T05:32:34.719Z,33.38
2023-04-22T05:33:34.738Z,33.41
2023-04-22T05:34:34.663Z,33.38
2023-04-22T05:35:34.664Z,33.39
2023-04-22T05:36:34.661Z,33.37
2023-04-22T05:37:34.622Z,33.37
2023-04-22T05:38:34.611Z,33.37
2023-04-22T05:39:34.602Z,33.39
2023-04-22T05:40:34.580Z,33.40
2023-04-22T05:41:34.602Z,33.39
2023-04-22T05:42:34.544Z,33.39
2023-04-22T05:43:34.531Z,33.40
2023-04-22T05:44:34.517Z,33.38
2023-04-22T05:45:34.566Z,33.37
2023-04-22T05:46:34.603Z,33.36
2023-04-22T05:47:34.513Z,33.37
2023-04-22T05:48:34.462Z,33.35
2023-04-22T05:49:34.451Z,33.36
2023-04-22T05:50:36.202Z,33.37
2023-04-22T05:51:34.420Z,33.39
2023-04-22T05:52:34.410Z,33.37
2023-04-22T05:53:34.389Z,33.38
2023-04-22T05:54:34.369Z,33.38
2023-04-22T05:55:34.358Z,33.38
2023-04-22T05:56:34.340Z,33.35
2023-04-22T05:57:34.329Z,33.35
2023-04-22T05:58:34.313Z,33.35
2023-04-22T05:59:34.313Z,33.34
2023-04-22T06:00:34.378Z,33.35
2023-04-22T06:01:34.270Z,33.33
2023-04-22T06:02:34.495Z,33.31
2023-04-22T06:03:34.503Z,33.27
2023-04-22T06:04:37.160Z,33.26
2023-04-22T06:05:34.334Z,33.18
2023-04-22T06:06:34.247Z,33.20
2023-04-22T06:07:34.222Z,33.21
2023-04-22T06:08:34.204Z,33.13
2023-04-22T06:09:34.190Z,33.34
2023-04-22T06:10:34.184Z,33.68
2023-04-22T06:11:34.170Z,33.34
2023-04-22T06:12:34.156Z,33.52
2023-04-22T06:13:34.140Z,33.67
2023-04-22T06:14:34.123Z,33.84
2023-04-22T06:15:34.143Z,33.90
2023-04-22T06:16:34.088Z,33.63
2023-04-22T06:17:34.107Z,33.47
2023-04-22T06:18:35.179Z,33.38
2023-04-22T06:19:34.240Z,33.19
2023-04-22T06:20:34.033Z,33.17
2023-04-22T06:21:34.031Z,33.12
2023-04-22T06:22:34.003Z,33.01
2023-04-22T06:23:34.000Z,32.95
2023-04-22T06:24:33.990Z,32.97
2023-04-22T06:25:33.973Z,32.82
2023-04-22T06:26:34.033Z,32.82
2023-04-22T06:27:33.943Z,32.85
2023-04-22T06:28:33.936Z,32.79
2023-04-22T06:29:33.964Z,32.75
2023-04-22T06:30:34.014Z,32.74
2023-04-22T06:31:34.085Z,32.72
2023-04-22T06:32:34.125Z,32.69
2023-04-22T06:33:34.101Z,32.66
2023-04-22T06:34:34.138Z,32.66
2023-04-22T06:35:34.182Z,32.61
2023-04-22T06:36:35.193Z,32.58
2023-04-22T06:37:34.243Z,32.62
2023-04-22T06:38:34.284Z,32.60
2023-04-22T06:39:34.335Z,32.58
2023-04-22T06:40:34.358Z,32.59
2023-04-22T06:41:34.380Z,32.56
2023-04-22T06:42:34.407Z,32.53
2023-04-22T06:43:34.458Z,32.49
2023-04-22T06:44:34.443Z,32.51
2023-04-22T06:45:34.502Z,32.45
2023-04-22T06:46:34.516Z,32.44
2023-04-22T06:47:34.577Z,32.44
2023-04-22T06:48:34.547Z,32.43
2023-04-22T06:49:34.652Z,32.45
2023-04-22T06:50:34.586Z,32.37
2023-04-22T06:51:34.586Z,32.34
2023-04-22T06:52:34.593Z,32.34
2023-04-22T06:53:34.600Z,32.35
2023-04-22T06:54:34.616Z,32.29
2023-04-22T06:55:34.638Z,32.35
2023-04-22T06:56:34.644Z,32.30
2023-04-22T06:57:36.232Z,32.37
2023-04-22T06:58:34.642Z,32.30
2023-04-22T06:59:34.628Z,32.25
2023-04-22T07:00:34.625Z,32.29
2023-04-22T07:01:34.670Z,32.24
2023-04-22T07:02:34.676Z,32.22
2023-04-22T07:03:34.740Z,32.15
2023-04-22T07:04:34.653Z,32.22
2023-04-22T07:05:34.606Z,32.16
2023-04-22T07:06:34.583Z,32.15
2023-04-22T07:07:34.568Z,32.24
2023-04-22T07:08:36.233Z,32.17
2023-04-22T07:09:34.540Z,32.13
2023-04-22T07:10:34.517Z,32.15
2023-04-22T07:11:34.484Z,32.05
2023-04-22T07:12:34.482Z,32.04
2023-04-22T07:13:34.480Z,31.98
2023-04-22T07:14:34.473Z,32.03
2023-04-22T07:15:34.442Z,31.99
2023-04-22T07:16:34.461Z,31.96
2023-04-22T07:17:34.459Z,31.96
2023-04-22T07:18:34.417Z,31.95
2023-04-22T07:19:35.300Z,31.89
2023-04-22T07:20:34.438Z,31.91
2023-04-22T07:21:34.430Z,31.85
2023-04-22T07:22:34.429Z,31.86
2023-04-22T07:23:34.450Z,31.84
2023-04-22T07:24:34.456Z,31.83
2023-04-22T07:25:34.473Z,31.78
2023-04-22T07:26:34.525Z,31.76
2023-04-22T07:27:35.291Z,31.75
2023-04-22T07:28:34.506Z,31.71
2023-04-22T07:29:34.514Z,31.70
2023-04-22T07:30:36.224Z,31.67
2023-04-22T07:31:34.540Z,31.66
2023-04-22T07:32:34.548Z,31.59
2023-04-22T07:33:34.548Z,31.60
2023-04-22T07:34:34.587Z,31.62
2023-04-22T07:35:35.257Z,31.62
2023-04-22T07:36:34.664Z,31.58
2023-04-22T07:37:34.694Z,31.54
2023-04-22T07:38:34.738Z,31.58
2023-04-22T07:39:34.779Z,31.53
2023-04-22T07:40:34.828Z,31.49
2023-04-22T07:41:34.854Z,31.49
2023-04-22T07:42:34.869Z,31.49
2023-04-22T07:43:34.902Z,31.43
2023-04-22T07:44:35.723Z,31.49
2023-04-22T07:45:35.031Z,31.38
2023-04-22T07:46:35.066Z,31.40
2023-04-22T07:47:35.180Z,31.42
2023-04-22T07:48:35.101Z,31.39
2023-04-22T07:49:35.111Z,31.36
2023-04-22T07:50:36.364Z,31.41
2023-04-22T07:51:35.159Z,31.37
2023-04-22T07:52:35.169Z,31.33
2023-04-22T07:53:35.188Z,31.37
2023-04-22T07:54:35.220Z,31.35
2023-04-22T07:55:35.255Z,31.36
2023-04-22T07:56:35.266Z,31.35
2023-04-22T07:57:35.295Z,31.33
2023-04-22T07:58:35.325Z,31.33
2023-04-22T07:59:35.330Z,31.33
2023-04-22T08:00:35.414Z,31.35
2023-04-22T08:01:35.382Z,31.35
2023-04-22T08:02:35.556Z,31.32
2023-04-22T08:03:35.645Z,31.31
2023-04-22T08:04:35.556Z,31.36
2023-04-22T08:05:35.528Z,31.34
2023-04-22T08:06:35.542Z,31.36
2023-04-22T08:07:35.571Z,31.38
2023-04-22T08:08:35.593Z,31.38
2023-04-22T08:09:35.634Z,31.39
2023-04-22T08:10:36.308Z,31.45
2023-04-22T08:11:35.794Z,31.44
2023-04-22T08:12:35.760Z,31.44
2023-04-22T08:13:35.768Z,31.46
2023-04-22T08:14:35.796Z,31.52
2023-04-22T08:15:35.903Z,31.53
2023-04-22T08:16:35.885Z,31.54
2023-04-22T08:17:35.963Z,31.54
2023-04-22T08:18:35.954Z,31.61
2023-04-22T08:19:36.030Z,31.56
2023-04-22T08:20:36.041Z,31.59
2023-04-22T08:21:36.150Z,31.63
2023-04-22T08:22:36.122Z,31.65
2023-04-22T08:23:36.140Z,31.64
2023-04-22T08:24:36.200Z,31.66
2023-04-22T08:25:36.225Z,31.71
2023-04-22T08:26:36.258Z,31.71
2023-04-22T08:27:36.295Z,31.76
2023-04-22T08:28:36.327Z,31.75
2023-04-22T08:29:37.378Z,31.75
2023-04-22T08:30:36.400Z,31.80
2023-04-22T08:31:36.458Z,31.81
2023-04-22T08:32:36.565Z,31.84
2023-04-22T08:33:36.503Z,31.86
2023-04-22T08:34:37.147Z,31.86
2023-04-22T08:35:36.586Z,31.85
2023-04-22T08:36:36.615Z,31.83
2023-04-22T08:37:36.643Z,31.85
2023-04-22T08:38:36.684Z,31.85
2023-04-22T08:39:36.934Z,31.89
2023-04-22T08:40:38.743Z,31.90
2023-04-22T08:41:36.810Z,31.91
2023-04-22T08:42:36.824Z,31.93
2023-04-22T08:43:36.861Z,31.93
2023-04-22T08:44:36.882Z,31.94
2023-04-22T08:45:38.783Z,32.02
2023-04-22T08:46:36.951Z,31.97
2023-04-22T08:47:36.973Z,31.99
2023-04-22T08:48:37.011Z,31.99
2023-04-22T08:49:37.186Z,31.99
2023-04-22T08:50:37.054Z,31.95
2023-04-22T08:51:37.068Z,31.99
2023-04-22T08:52:37.116Z,32.04
2023-04-22T08:53:37.156Z,32.03
2023-04-22T08:54:37.196Z,32.04
2023-04-22T08:55:37.252Z,32.00
2023-04-22T08:56:37.298Z,32.02
2023-04-22T08:57:37.319Z,32.04
2023-04-22T08:58:37.351Z,32.04
2023-04-22T08:59:37.507Z,32.01
2023-04-22T09:00:37.395Z,32.03
2023-04-22T09:01:37.434Z,32.02
2023-04-22T09:02:37.459Z,32.05
2023-04-22T09:03:37.560Z,32.01
2023-04-22T09:04:37.631Z,32.03
2023-04-22T09:05:37.535Z,32.03
2023-04-22T09:06:37.554Z,32.02
2023-04-22T09:07:37.577Z,32.04
2023-04-22T09:08:37.604Z,31.99
2023-04-22T09:09:37.711Z,31.99
2023-04-22T09:10:37.676Z,31.99
2023-04-22T09:11:37.688Z,31.95
2023-04-22T09:12:37.695Z,31.98
2023-04-22T09:13:37.728Z,31.94
2023-04-22T09:14:37.745Z,31.96
2023-04-22T09:15:37.778Z,31.97
2023-04-22T09:16:37.848Z,31.95
2023-04-22T09:17:37.878Z,31.92
2023-04-22T09:18:37.883Z,31.89
2023-04-22T09:19:38.235Z,31.91
2023-04-22T09:20:37.962Z,31.92
2023-04-22T09:21:38.257Z,31.91
2023-04-22T09:22:37.996Z,31.93
2023-04-22T09:23:38.039Z,31.92
2023-04-22T09:24:38.059Z,31.90
2023-04-22T09:25:38.086Z,31.87
2023-04-22T09:26:38.120Z,31.87
2023-04-22T09:27:38.128Z,31.88
2023-04-22T09:28:38.148Z,31.87
2023-04-22T09:29:38.427Z,31.86
2023-04-22T09:30:38.248Z,31.87
2023-04-22T09:31:38.255Z,31.85
2023-04-22T09:32:38.310Z,31.84
2023-04-22T09:33:38.302Z,31.83
2023-04-22T09:34:38.430Z,31.88
2023-04-22T09:35:38.361Z,31.89
2023-04-22T09:36:38.361Z,31.89
2023-04-22T09:37:48.867Z,31.89
2023-04-22T09:38:39.368Z,31.88
2023-04-22T09:39:38.569Z,31.83
2023-04-22T09:40:38.303Z,31.91
2023-04-22T09:41:38.245Z,31.85
2023-04-22T09:42:38.225Z,31.83
2023-04-22T09:43:38.185Z,31.85
2023-04-22T09:44:38.151Z,31.81
2023-04-22T09:45:38.182Z,31.82
2023-04-22T09:46:38.092Z,31.85
2023-04-22T09:47:38.090Z,31.86
2023-04-22T09:48:38.844Z,31.85
2023-04-22T09:49:38.219Z,31.85
2023-04-22T09:50:38.120Z,31.85
2023-04-22T09:51:38.767Z,31.87
2023-04-22T09:52:37.937Z,31.85
2023-04-22T09:53:37.961Z,31.88
2023-04-22T09:54:37.990Z,31.85
2023-04-22T09:55:37.994Z,31.87
2023-04-22T09:56:38.017Z,31.86
2023-04-22T09:57:38.027Z,31.88
2023-04-22T09:58:38.053Z,31.87
2023-04-22T09:59:38.207Z,31.87
2023-04-22T10:00:38.062Z,31.87
2023-04-22T10:01:38.156Z,31.85
2023-04-22T10:02:38.157Z,31.92
2023-04-22T10:03:38.144Z,31.92
2023-04-22T10:04:38.128Z,31.87
2023-04-22T10:05:39.845Z,31.92
2023-04-22T10:06:38.242Z,31.89
2023-04-22T10:07:38.162Z,31.94
2023-04-22T10:08:38.211Z,31.91
2023-04-22T10:09:38.375Z,31.91
2023-04-22T10:10:38.342Z,31.91
2023-04-22T10:11:38.211Z,31.90
2023-04-22T10:12:38.222Z,31.91
2023-04-22T10:13:38.236Z,31.93
2023-04-22T10:14:38.240Z,31.97
2023-04-22T10:15:38.253Z,31.93
2023-04-22T10:16:38.350Z,31.93
2023-04-22T10:17:38.309Z,31.93
2023-04-22T10:18:38.288Z,31.96
2023-04-22T10:19:38.665Z,31.99
2023-04-22T10:20:38.321Z,32.00
2023-04-22T10:21:38.355Z,31.99
2023-04-22T10:22:38.349Z,31.97
2023-04-22T10:23:38.364Z,31.99
2023-04-22T10:24:38.386Z,31.99
2023-04-22T10:25:38.405Z,32.01
2023-04-22T10:26:38.422Z,32.01
2023-04-22T10:27:38.425Z,32.02
2023-04-22T10:28:38.442Z,32.02
2023-04-22T10:29:38.794Z,32.03
2023-04-22T10:30:38.478Z,32.02
2023-04-22T10:31:38.501Z,32.01
2023-04-22T10:32:38.550Z,32.05
2023-04-22T10:33:39.073Z,32.06
2023-04-22T10:34:38.559Z,32.07
2023-04-22T10:35:40.286Z,32.08
2023-04-22T10:36:38.571Z,32.06
2023-04-22T10:37:38.594Z,32.10
2023-04-22T10:38:38.615Z,32.07
2023-04-22T10:39:38.969Z,32.11
2023-04-22T10:40:38.634Z,32.11
2023-04-22T10:41:38.647Z,32.12
2023-04-22T10:42:38.661Z,32.12
2023-04-22T10:43:38.675Z,32.14
2023-04-22T10:44:38.673Z,32.19
2023-04-22T10:45:38.691Z,32.18
2023-04-22T10:46:38.733Z,32.19
2023-04-22T10:47:38.766Z,32.21
2023-04-22T10:48:38.730Z,32.22
2023-04-22T10:49:39.009Z,32.23
2023-04-22T10:50:38.764Z,32.24
2023-04-22T10:51:38.789Z,32.28
2023-04-22T10:52:38.809Z,32.25
2023-04-22T10:53:38.823Z,32.30
2023-04-22T10:54:38.841Z,32.31
2023-04-22T10:55:38.866Z,32.29
2023-04-22T10:56:42.948Z,32.29
2023-04-22T10:57:39.857Z,32.30
2023-04-22T10:58:38.814Z,32.33
2023-04-22T10:59:38.916Z,32.33
2023-04-22T11:00:52.431Z,32.34
2023-04-22T11:01:39.765Z,32.38
2023-04-22T11:02:38.801Z,32.37
2023-04-22T11:03:38.798Z,32.38
2023-04-22T11:04:38.608Z,32.38
2023-04-22T11:05:38.603Z,32.38
2023-04-22T11:06:38.539Z,32.42
2023-04-22T11:07:38.513Z,32.40
2023-04-22T11:08:38.493Z,32.49
2023-04-22T11:09:38.716Z,32.48
2023-04-22T11:10:38.429Z,32.43
2023-04-22T11:11:38.390Z,32.44
2023-04-22T11:12:38.354Z,32.45
2023-04-22T11:13:39.393Z,32.44
2023-04-22T11:14:38.464Z,32.45
2023-04-22T11:15:38.414Z,32.51
2023-04-22T11:16:38.498Z,32.47
2023-04-22T11:17:38.484Z,32.49
2023-04-22T11:18:39.371Z,32.49
2023-04-22T11:19:38.778Z,32.51
2023-04-22T11:20:38.706Z,32.51
2023-04-22T11:21:38.587Z,32.52
2023-04-22T11:22:38.621Z,32.55
2023-04-22T11:23:38.641Z,32.55
2023-04-22T11:24:38.670Z,32.60
2023-04-22T11:25:38.707Z,32.59
2023-04-22T11:26:38.747Z,32.63
2023-04-22T11:27:38.765Z,32.64
2023-04-22T11:28:38.783Z,32.64
2023-04-22T11:29:39.065Z,32.65
2023-04-22T11:30:38.847Z,32.65
2023-04-22T11:31:38.901Z,32.66
2023-04-22T11:32:38.972Z,32.68
2023-04-22T11:33:39.808Z,32.67
2023-04-22T11:34:38.966Z,32.69
2023-04-22T11:35:38.997Z,32.71
2023-04-22T11:36:39.028Z,32.70
2023-04-22T11:37:40.834Z,32.71
2023-04-22T11:38:39.097Z,32.71
2023-04-22T11:39:50.271Z,32.72
2023-04-22T11:40:42.043Z,32.71
2023-04-22T11:41:39.048Z,32.71
2023-04-22T11:42:39.022Z,32.73
2023-04-22T11:43:39.009Z,32.70
2023-04-22T11:44:38.962Z,32.74
2023-04-22T11:45:38.980Z,32.77
2023-04-22T11:46:38.934Z,32.79
2023-04-22T11:47:38.882Z,32.78
2023-04-22T11:48:38.838Z,32.80
2023-04-22T11:49:39.160Z,32.80
2023-04-22T11:50:38.761Z,32.83
2023-04-22T11:51:38.735Z,32.85
2023-04-22T11:52:38.704Z,32.83
2023-04-22T11:53:38.685Z,32.81
2023-04-22T11:54:38.728Z,32.82
2023-04-22T11:55:38.947Z,32.85
2023-04-22T11:56:38.781Z,32.84
2023-04-22T11:57:38.808Z,32.84
2023-04-22T11:58:38.844Z,32.84
2023-04-22T11:59:39.057Z,32.87
2023-04-22T12:00:38.925Z,32.86
2023-04-22T12:01:38.940Z,32.87
2023-04-22T12:02:39.077Z,32.87
2023-04-22T12:03:39.104Z,32.90
2023-04-22T12:04:39.035Z,32.90
2023-04-22T12:05:39.209Z,32.89
2023-04-22T12:06:39.095Z,32.94
2023-04-22T12:07:39.131Z,32.97
2023-04-22T12:08:39.159Z,32.97
2023-04-22T12:09:39.334Z,32.97
2023-04-22T12:10:40.890Z,32.97
2023-04-22T12:11:39.217Z,32.98
2023-04-22T12:12:39.275Z,32.98
2023-04-22T12:13:39.276Z,32.98
2023-04-22T12:14:39.312Z,32.96
2023-04-22T12:15:39.327Z,32.99
2023-04-22T12:16:39.381Z,32.98
2023-04-22T12:17:39.383Z,33.00
2023-04-22T12:18:39.384Z,33.00
2023-04-22T12:19:39.666Z,33.04
2023-04-22T12:20:39.441Z,33.08
2023-04-22T12:21:39.459Z,33.05
2023-04-22T12:22:39.497Z,33.08
2023-04-22T12:23:39.571Z,33.06
2023-04-22T12:24:39.648Z,33.10
2023-04-22T12:25:39.699Z,33.05
2023-04-22T12:26:39.722Z,33.09
2023-04-22T12:27:39.753Z,33.03
2023-04-22T12:28:39.693Z,33.06
2023-04-22T12:29:40.010Z,33.08
2023-04-22T12:30:39.744Z,33.05
2023-04-22T12:31:39.894Z,33.08
2023-04-22T12:32:39.778Z,33.09
2023-04-22T12:33:39.863Z,33.12
2023-04-22T12:34:39.814Z,33.10
2023-04-22T12:35:39.823Z,33.08
2023-04-22T12:36:41.354Z,33.05
2023-04-22T12:37:39.900Z,33.10
2023-04-22T12:38:39.939Z,33.12
2023-04-22T12:39:40.310Z,33.15
2023-04-22T12:40:39.970Z,33.21
2023-04-22T12:41:39.981Z,33.21
2023-04-22T12:42:40.035Z,33.20
2023-04-22T12:43:40.047Z,33.22
2023-04-22T12:44:40.086Z,33.20
2023-04-22T12:45:40.094Z,33.17
2023-04-22T12:46:40.110Z,33.19
2023-04-22T12:47:40.121Z,33.17
2023-04-22T12:48:40.115Z,33.16
2023-04-22T12:49:40.389Z,33.15
2023-04-22T12:50:40.155Z,33.12
2023-04-22T12:51:40.191Z,33.15
2023-04-22T12:52:40.203Z,33.16